ADDS METAR Data INFO
IDs: Format: Raw Decoded Include TAF

Data at: 1416 UTC 12 Dec 2017

KLLQ 121353Z AUTO 32008KT 10SM CLR 07/M01 A3022 RMK AO2 SLP234 T00721011
KLLQ 121253Z AUTO 30005KT 10SM CLR 06/M02 A3020 RMK AO2 SLP227 T00561022
KLLQ 121153Z AUTO 32004KT 10SM CLR 08/M02 A3018 RMK AO2 SLP219 T00781022 10106 20056 53022
KLLQ 121053Z AUTO 33004KT 10SM CLR 08/M02 A3015 RMK AO2 SLP207 T00831022
KLLQ 120953Z AUTO VRB03KT 10SM CLR 10/M02 A3013 RMK AO2 SLP201 T01001022
KLLQ 120853Z AUTO 34005KT 10SM CLR 09/M04 A3011 RMK AO2 SLP195 T00941039 53019
KLLQ 120753Z AUTO 30003KT 10SM CLR 07/M03 A3009 RMK AO2 SLP188 T00721033
KLLQ 120653Z AUTO 00000KT 10SM CLR 08/M03 A3007 RMK AO2 SLP181 T00831028
KLLQ 120553Z AUTO 30003KT 10SM CLR 11/M03 A3006 RMK AO2 SLP176 T01061033 10172 20106 402220044 53021
KLLQ 120453Z AUTO 31005KT 10SM CLR 13/M03 A3003 RMK AO2 SLP168 T01281028
KLLQ 120353Z AUTO 27007KT 10SM CLR 13/M02 A3000 RMK AO2 SLP158 T01331017
KLLQ 120253Z AUTO 23007KT 10SM CLR 14/M02 A2999 RMK AO2 SLP156 T01441017 56001
KLLQ 120153Z AUTO 23007KT 10SM CLR 16/M02 A2999 RMK AO2 SLP156 T01611022
KLLQ 120053Z AUTO 22009KT 10SM CLR 17/M02 A2999 RMK AO2 SLP156 T01721022
KLLQ 112353Z AUTO 21005KT 10SM CLR 16/M02 A3000 RMK AO2 SLP157 T01611022 10222 20161 57005
KLLQ 112253Z AUTO 22004KT 10SM CLR 19/M03 A3000 RMK AO2 SLP159 T01891033
KLLQ 112153Z AUTO 22007KT 10SM CLR 22/M04 A3001 RMK AO2 SLP160 T02171039
KLLQ 112053Z AUTO 22010KT 10SM CLR 22/M04 A3001 RMK AO2 SLP162 T02221039 56041
KLLQ 111953Z AUTO 25008KT 10SM CLR 22/M03 A3005 RMK AO2 SLP174 T02171028
KLLQ 111853Z AUTO 21011KT 10SM CLR 21/M03 A3009 RMK AO2 SLP188 T02061028
KLLQ 111753Z AUTO 21011KT 10SM CLR 19/M02 A3014 RMK AO2 SLP203 T01891022 10189 20044 58022
KLLQ 111653Z AUTO 24007KT 10SM CLR 16/M02 A3017 RMK AO2 SLP216 T01611022
KLLQ 111553Z AUTO 26005KT 10SM CLR 13/M01 A3020 RMK AO2 SLP226 T01331011
KLLQ 111453Z AUTO 27005KT 10SM CLR 09/M01 A3020 RMK AO2 SLP227 T00891011 58002
KLLQ 111353Z AUTO 28006KT 10SM CLR 07/M02 A3021 RMK AO2 SLP228 T00671017
KLLQ 111253Z AUTO 28006KT 10SM CLR 05/M02 A3021 RMK AO2 SLP230 T00501017
KLLQ 111153Z AUTO 28005KT 10SM CLR 05/M02 A3021 RMK AO2 SLP229 T00501017 10089 20044 56005
KLLQ 111053Z AUTO 26007KT 10SM CLR 06/M02 A3021 RMK AO2 SLP231 T00611017
KLLQ 110953Z AUTO 27005KT 10SM CLR 04/M01 A3020 RMK AO2 SLP227 T00441011
KLLQ 110853Z AUTO 26006KT 10SM CLR 07/M02 A3022 RMK AO2 SLP234 T00671017 55004
KLLQ 110753Z AUTO 26005KT 10SM CLR 06/M02 A3022 RMK AO2 SLP232 T00561017
KLLQ 110653Z AUTO 27004KT 10SM CLR 07/M02 A3023 RMK AO2 SLP235 T00671017
KLLQ 110553Z AUTO 25005KT 10SM CLR 09/M02 A3023 RMK AO2 SLP238 T00891017 10122 20089 401611033 53001
KLLQ 110453Z AUTO 24008KT 10SM CLR 10/M02 A3023 RMK AO2 SLP236 T01001017
KLLQ 110353Z AUTO 23007KT 10SM CLR 11/M02 A3023 RMK AO2 SLP236 T01061017
KLLQ 110253Z AUTO 23007KT 10SM CLR 12/M02 A3023 RMK AO2 SLP237 T01171017 58001